Time;durP1;ratioP1;P1;durP2;ratioP2;P2;SDS_P1;SDS_P2;PMS_P1;PMS_P2;Temp;Humidity;BMP_temperature;BMP_pressure;BME280_temperature;BME280_humidity;BME280_pressure;Samples;Min_cycle;Max_cycle;Signal;HPM_P1;HPM_P2
2021/07/16 00:01:34;;;;;;;0.35;0.35;;;;;;;20.91;74.75;98371.88;4937847;29;20503;-85
2021/07/16 00:04:00;;;;;;;0.65;0.65;;;;;;;21.19;74.41;98418.78;4938039;29;20031;-85
2021/07/16 00:06:25;;;;;;;1.17;1.17;;;;;;;20.91;74.72;98383.09;4937455;29;20032;-85
2021/07/16 00:08:51;;;;;;;0.90;0.90;;;;;;;20.97;73.86;98402.75;4937977;29;20066;-85
2021/07/16 00:11:16;;;;;;;12.32;1.08;;;;;;;20.86;74.36;98414.75;4937404;29;20114;-84
2021/07/16 00:13:42;;;;;;;0.98;0.98;;;;;;;20.75;73.21;98392.31;4937608;29;20070;-83
2021/07/16 00:16:07;;;;;;;0.88;0.47;;;;;;;20.87;73.51;98412.72;4954864;29;20031;-85
2021/07/16 00:18:34;;;;;;;2.83;1.05;;;;;;;20.76;73.86;98412.72;4937591;29;20122;-85
2021/07/16 00:21:01;;;;;;;1.15;1.05;;;;;;;20.62;74.88;98389.25;4937610;29;20042;-85
2021/07/16 00:23:27;;;;;;;1.25;1.15;;;;;;;20.75;74.39;98411.19;4937487;29;20121;-85
2021/07/16 00:25:53;;;;;;;0.60;0.60;;;;;;;20.59;75.25;98407.16;4937449;29;20122;-84
2021/07/16 00:28:18;;;;;;;0.65;0.63;;;;;;;20.45;75.46;98417.34;4937444;29;20408;-85
2021/07/16 00:30:44;;;;;;;1.88;1.10;;;;;;;20.34;76.03;98396.94;4937601;29;20251;-85
2021/07/16 00:33:09;;;;;;;0.82;0.82;;;;;;;20.45;75.60;98394.13;4937596;29;20031;-85
2021/07/16 00:35:35;;;;;;;0.47;0.47;;;;;;;20.43;75.50;98388.28;4937303;29;20058;-85
2021/07/16 00:38:00;;;;;;;0.45;0.45;;;;;;;20.50;75.51;98408.16;4954727;29;20066;-86
2021/07/16 00:40:26;;;;;;;0.50;0.50;;;;;;;20.17;76.20;98375.25;4937166;29;20113;-85
2021/07/16 00:42:51;;;;;;;0.65;0.65;;;;;;;20.08;76.53;98361.47;4954680;29;20082;-85
2021/07/16 00:45:17;;;;;;;2.17;1.65;;;;;;;19.99;77.55;98375.75;4937605;29;20475;-85
2021/07/16 00:47:45;;;;;;;2.63;1.23;;;;;;;20.18;77.46;98399.22;4937250;29;20490;-85
2021/07/16 00:50:14;;;;;;;1.45;1.33;;;;;;;20.15;77.15;98389.00;4937101;29;20028;-85
2021/07/16 00:52:42;;;;;;;1.20;1.10;;;;;;;20.21;76.39;98367.31;4939312;29;20098;-85
2021/07/16 00:55:09;;;;;;;1.20;0.90;;;;;;;20.10;76.41;98347.69;4958264;29;20024;-84
2021/07/16 00:57:35;;;;;;;0.52;0.50;;;;;;;20.11;76.35;98354.06;4940485;29;20050;-84
2021/07/16 01:00:01;;;;;;;1.63;0.98;;;;;;;20.21;76.20;98370.13;4957854;29;20027;-85
2021/07/16 01:02:27;;;;;;;3.70;1.10;;;;;;;20.15;76.47;98366.56;4940645;29;20046;-84
2021/07/16 01:04:53;;;;;;;2.15;1.38;;;;;;;20.24;76.07;98374.75;4940615;29;20031;-85
2021/07/16 01:07:19;;;;;;;1.08;0.60;;;;;;;20.23;76.30;98380.84;4940388;29;20402;-83
2021/07/16 01:09:49;;;;;;;0.93;0.63;;;;;;;20.07;76.02;98368.38;4940570;29;20078;-84
2021/07/16 01:12:16;;;;;;;0.85;0.82;;;;;;;20.18;75.80;98378.81;4940466;29;20031;-85
2021/07/16 01:14:41;;;;;;;1.67;1.58;;;;;;;20.09;76.80;98351.00;4940537;29;20050;-86
2021/07/16 01:17:07;;;;;;;2.13;1.05;;;;;;;20.19;76.66;98360.72;4940537;29;20061;-85
2021/07/16 01:19:48;;;;;;;6.50;1.50;;;;;;;20.17;76.82;98363.25;4940178;29;20027;-85
2021/07/16 01:22:16;;;;;;;0.63;0.63;;;;;;;19.89;76.82;98318.38;4940746;29;20051;-85
2021/07/16 01:24:41;;;;;;;0.28;0.28;;;;;;;20.17;76.03;98371.66;4940524;29;20098;-85
2021/07/16 01:27:07;;;;;;;0.30;0.30;;;;;;;20.24;75.32;98374.75;4940649;29;20479;-86
2021/07/16 01:29:34;;;;;;;0.63;0.63;;;;;;;20.22;74.97;98368.09;4957509;29;20479;-86
2021/07/16 01:31:59;;;;;;;0.25;0.25;;;;;;;20.11;74.70;98340.81;4940131;29;20480;-86
2021/07/16 01:34:25;;;;;;;0.60;0.60;;;;;;;20.34;74.58;98385.72;4940641;29;20033;-86
2021/07/16 01:36:50;;;;;;;0.95;0.95;;;;;;;20.15;75.40;98354.56;4940203;29;20397;-86
2021/07/16 01:39:16;;;;;;;0.75;0.75;;;;;;;20.38;74.61;98377.81;4957432;29;20039;-85
2021/07/16 01:41:41;;;;;;;0.70;0.70;;;;;;;20.19;75.28;98363.53;4957209;29;20031;-85
2021/07/16 01:44:07;;;;;;;1.35;1.02;;;;;;;20.21;75.68;98361.72;4940173;29;20027;-85
2021/07/16 01:46:32;;;;;;;0.90;0.30;;;;;;;20.17;76.53;98361.22;4939893;29;20066;-85
2021/07/16 01:48:58;;;;;;;0.85;0.85;;;;;;;20.22;76.35;98366.06;4940041;29;20023;-86
2021/07/16 01:51:24;;;;;;;0.50;0.50;;;;;;;20.10;76.34;98352.53;4957287;29;20035;-85
2021/07/16 01:53:50;;;;;;;0.32;0.32;;;;;;;20.41;75.36;98376.78;4939975;29;20019;-85
2021/07/16 01:56:17;;;;;;;0.50;0.50;;;;;;;20.44;75.00;98372.94;4939850;29;20035;-85
2021/07/16 01:58:43;;;;;;;0.30;0.30;;;;;;;20.27;75.31;98345.66;4939707;29;20031;-85
2021/07/16 02:01:14;;;;;;;0.73;0.73;;;;;;;20.20;75.44;98339.78;4939443;29;20046;-85
2021/07/16 02:03:41;;;;;;;0.85;0.80;;;;;;;20.48;75.35;98359.44;4939115;29;20028;-84
2021/07/16 02:06:06;;;;;;;0.70;0.70;;;;;;;20.61;75.04;98373.72;4956640;29;20059;-84
2021/07/16 02:08:32;;;;;;;0.75;0.75;;;;;;;20.53;75.05;98361.47;4939320;29;20118;-84
2021/07/16 02:10:57;;;;;;;0.38;0.38;;;;;;;20.58;74.06;98360.69;4939344;29;20047;-84
2021/07/16 02:13:24;;;;;;;1.33;1.23;;;;;;;20.44;73.90;98322.44;4939142;29;20038;-84
2021/07/16 02:15:52;;;;;;;0.90;0.90;;;;;;;20.59;73.97;98354.56;4939142;29;20031;-84
2021/07/16 02:18:18;;;;;;;1.02;0.85;;;;;;;20.67;73.33;98352.78;4939155;29;20024;-84
2021/07/16 02:20:44;;;;;;;0.98;0.98;;;;;;;20.61;73.32;98351.25;4956304;29;20039;-84
2021/07/16 02:23:15;;;;;;;0.68;0.68;;;;;;;20.64;72.89;98355.84;4939229;29;20408;-84
2021/07/16 02:25:40;;;;;;;0.73;0.73;;;;;;;20.52;72.92;98312.22;4938951;29;20164;-84
2021/07/16 02:28:10;;;;;;;0.63;0.63;;;;;;;20.64;72.78;98327.75;4956038;29;20031;-85
2021/07/16 02:30:35;;;;;;;1.95;1.10;;;;;;;20.76;72.72;98346.13;4956143;29;20066;-84
2021/07/16 02:33:02;;;;;;;1.15;1.05;;;;;;;20.67;73.12;98346.41;4938852;29;20447;-84
2021/07/16 02:35:29;;;;;;;0.35;0.35;;;;;;;20.58;72.91;98332.63;4938802;29;20063;-84
2021/07/16 02:37:55;;;;;;;0.60;0.60;;;;;;;20.69;72.51;98332.59;4955464;28;20055;-84
2021/07/16 02:40:21;;;;;;;0.88;0.82;;;;;;;20.46;73.24;98329.06;4955739;29;20034;-84
2021/07/16 02:42:47;;;;;;;2.03;1.77;;;;;;;20.34;74.08;98324.00;4938560;29;20404;-84
2021/07/16 02:45:16;;;;;;;0.93;0.70;;;;;;;20.20;74.88;98320.13;4955788;29;20035;-84
2021/07/16 02:47:42;;;;;;;0.40;0.40;;;;;;;20.26;75.57;98348.97;4938575;29;20061;-83
2021/07/16 02:50:11;;;;;;;0.85;0.85;;;;;;;20.19;76.18;98360.72;4955615;29;20106;-84
2021/07/16 02:52:36;;;;;;;9.75;2.17;;;;;;;20.20;74.88;98360.19;4938349;29;20117;-83
2021/07/16 02:55:03;;;;;;;2.75;0.90;;;;;;;20.21;74.65;98363.75;4955548;29;20027;-84
2021/07/16 02:57:29;;;;;;;0.77;0.77;;;;;;;20.09;75.34;98357.38;4938090;29;20054;-84
2021/07/16 02:59:54;;;;;;;0.57;0.57;;;;;;;20.04;75.72;98360.94;4938733;29;20031;-84
2021/07/16 03:02:20;;;;;;;0.50;0.50;;;;;;;19.98;76.06;98363.00;4938795;29;20046;-84
2021/07/16 03:04:46;;;;;;;0.40;0.40;;;;;;;19.95;76.03;98352.03;4938386;29;20031;-84
2021/07/16 03:07:12;;;;;;;0.57;0.57;;;;;;;19.76;76.06;98357.34;4955328;29;20036;-83
2021/07/16 03:09:38;;;;;;;0.80;0.80;;;;;;;19.57;76.92;98336.69;4938148;29;20086;-84
2021/07/16 03:12:04;;;;;;;1.75;1.60;;;;;;;19.78;76.58;98369.59;4938357;29;20133;-84
2021/07/16 03:14:30;;;;;;;1.00;0.63;;;;;;;19.82;78.33;98367.31;4937866;29;20027;-84
2021/07/16 03:16:56;;;;;;;0.30;0.30;;;;;;;19.86;78.15;98390.25;4955129;29;20039;-84
2021/07/16 03:19:21;;;;;;;0.93;0.85;;;;;;;19.65;77.49;98344.06;4937787;29;20019;-84
2021/07/16 03:21:47;;;;;;;0.30;0.30;;;;;;;20.00;77.06;98373.69;4938101;29;20495;-83
2021/07/16 03:24:12;;;;;;;0.30;0.30;;;;;;;20.17;77.05;98389.28;4937967;29;20074;-85
2021/07/16 03:26:38;;;;;;;0.17;0.17;;;;;;;20.12;75.96;98376.00;4954685;29;20037;-84
2021/07/16 03:29:05;;;;;;;1.90;0.75;;;;;;;20.31;75.36;98384.69;4937701;29;20027;-84
2021/07/16 03:31:30;;;;;;;0.60;0.60;;;;;;;20.12;74.69;98333.94;4955125;29;20063;-86
2021/07/16 03:33:55;;;;;;;0.75;0.75;;;;;;;20.24;74.46;98352.28;4937851;29;20126;-84
2021/07/16 03:36:21;;;;;;;0.65;0.65;;;;;;;20.37;74.25;98365.06;4937615;28;20031;-85
2021/07/16 03:38:47;;;;;;;0.50;0.50;;;;;;;20.26;74.33;98335.69;4937908;29;20118;-85
2021/07/16 03:41:14;;;;;;;4.13;1.40;;;;;;;20.66;73.81;98386.97;4955050;29;20023;-84
2021/07/16 03:43:40;;;;;;;4.30;1.55;;;;;;;20.65;73.56;98352.53;4938307;29;20059;-86
2021/07/16 03:46:05;;;;;;;0.80;0.63;;;;;;;20.88;72.89;98369.31;4938007;29;20060;-85
2021/07/16 03:48:32;;;;;;;0.98;0.98;;;;;;;21.06;71.63;98371.56;4937727;29;20475;-85
2021/07/16 03:50:58;;;;;;;0.93;0.93;;;;;;;21.22;70.95;98382.00;4937929;29;20461;-84
2021/07/16 03:53:23;;;;;;;0.43;0.43;;;;;;;21.13;71.01;98377.41;4937633;29;20030;-85
2021/07/16 03:55:48;;;;;;;0.85;0.50;;;;;;;21.41;70.83;98394.19;4937514;29;20101;-85
2021/07/16 03:58:14;;;;;;;1.48;1.23;;;;;;;21.61;70.18;98389.50;4938456;29;20031;-84
2021/07/16 04:00:39;;;;;;;1.00;0.90;;;;;;;21.76;69.82;98393.47;4954987;29;20460;-86
2021/07/16 04:03:05;;;;;;;0.52;0.32;;;;;;;21.56;69.29;98334.81;4937768;29;20023;-86
2021/07/16 04:05:32;;;;;;;1.80;0.77;;;;;;;22.01;68.54;98382.34;4954856;29;20027;-88
2021/07/16 04:08:04;;;;;;;1.55;1.33;;;;;;;22.24;67.94;98387.31;4937757;29;20118;-88
2021/07/16 04:10:32;;;;;;;1.33;1.08;;;;;;;22.32;67.46;98345.28;4954924;29;20031;-86
2021/07/16 04:13:23;;;;;;;0.65;0.65;;;;;;;22.71;65.85;98381.53;4938020;29;20127;-85
2021/07/16 04:15:49;;;;;;;3.70;0.85;;;;;;;22.80;65.28;98363.53;4934018;29;20042;-87
2021/07/16 04:18:14;;;;;;;0.70;0.70;;;;;;;23.04;64.55;98369.91;4937593;29;20031;-86
2021/07/16 04:20:41;;;;;;;3.25;1.48;;;;;;;23.22;64.74;98393.03;4937494;29;20039;-85
2021/07/16 04:23:06;;;;;;;0.75;0.75;;;;;;;23.37;64.26;98380.06;4954707;29;20034;-88
2021/07/16 04:25:32;;;;;;;1.48;1.33;;;;;;;23.51;63.00;98366.81;4937461;29;20102;-86
2021/07/16 04:28:00;;;;;;;0.80;0.80;;;;;;;23.82;62.68;98351.25;4940547;29;20027;-86
2021/07/16 04:30:26;;;;;;;1.42;1.33;;;;;;;24.17;61.43;98370.72;4941313;29;20486;-86
2021/07/16 04:32:54;;;;;;;0.90;0.90;;;;;;;24.54;61.11;98371.94;4958501;29;20083;-86
2021/07/16 04:35:19;;;;;;;3.08;1.25;;;;;;;24.92;58.80;98362.00;4941355;29;20467;-86
2021/07/16 04:37:46;;;;;;;0.55;0.55;;;;;;;25.11;57.03;98382.47;4941140;29;20059;-84
2021/07/16 04:40:15;;;;;;;0.63;0.63;;;;;;;25.44;57.81;98378.19;4941245;29;20050;-86
2021/07/16 04:42:41;;;;;;;0.70;0.70;;;;;;;25.60;55.49;98341.63;4940973;29;20526;-86
2021/07/16 04:45:07;;;;;;;1.13;1.02;;;;;;;26.18;56.48;98378.09;4958130;29;20031;-86
2021/07/16 04:47:33;;;;;;;0.95;0.70;;;;;;;26.40;53.91;98374.78;4940634;29;20019;-86
2021/07/16 04:49:58;;;;;;;0.40;0.40;;;;;;;26.54;54.14;98367.69;4940784;29;20042;-86
2021/07/16 04:52:23;;;;;;;0.40;0.40;;;;;;;26.91;53.70;98385.59;4941019;29;20069;-86
2021/07/16 04:54:49;;;;;;;3.30;1.23;;;;;;;26.67;52.17;98386.69;4940815;29;20089;-85
2021/07/16 04:57:14;;;;;;;1.63;0.95;;;;;;;26.52;51.96;98393.00;4940599;29;20042;-84
2021/07/16 04:59:40;;;;;;;0.40;0.40;;;;;;;26.44;52.33;98355.34;4940411;29;20051;-85
2021/07/16 05:02:05;;;;;;;0.73;0.57;;;;;;;26.90;52.33;98386.88;4940423;29;20034;-86
2021/07/16 05:04:32;;;;;;;0.50;0.50;;;;;;;26.90;51.25;98347.19;4940280;29;20114;-86
2021/07/16 05:06:57;;;;;;;1.80;1.05;;;;;;;27.65;50.32;98375.25;4957917;29;20032;-86
2021/07/16 05:09:23;;;;;;;3.53;0.52;;;;;;;28.30;49.85;98404.22;4940545;29;20085;-85
2021/07/16 05:11:50;;;;;;;4.97;1.88;;;;;;;28.50;48.61;98377.72;4940580;29;20066;-86
2021/07/16 05:14:16;;;;;;;0.50;0.50;;;;;;;29.01;46.63;98403.13;4940431;29;20031;-85
2021/07/16 05:16:41;;;;;;;0.55;0.55;;;;;;;29.35;45.98;98384.88;4940472;29;20033;-85
2021/07/16 05:19:07;;;;;;;1.35;0.88;;;;;;;30.08;44.79;98403.56;4940463;29;20071;-87
2021/07/16 05:21:33;;;;;;;1.00;0.77;;;;;;;30.19;43.08;98377.50;4940350;29;20027;-86
2021/07/16 05:23:59;;;;;;;0.68;0.60;;;;;;;30.32;43.21;98391.44;4940399;29;20031;-86
2021/07/16 05:26:24;;;;;;;0.88;0.57;;;;;;;30.82;42.51;98382.16;4940265;29;20023;-85
2021/07/16 05:28:50;;;;;;;0.52;0.52;;;;;;;31.43;40.16;98400.22;4957541;29;20034;-84
2021/07/16 05:31:17;;;;;;;0.90;0.90;;;;;;;31.85;40.20;98377.25;4939975;29;20023;-84
2021/07/16 05:33:42;;;;;;;1.00;0.93;;;;;;;32.42;38.43;98386.78;4957288;29;20542;-84
2021/07/16 05:36:08;;;;;;;0.88;0.88;;;;;;;33.42;37.18;98395.94;4939650;29;20031;-85
2021/07/16 05:38:34;;;;;;;2.88;1.30;;;;;;;34.56;34.59;98407.88;4938360;29;20066;-85
2021/07/16 05:41:00;;;;;;;1.45;1.35;;;;;;;35.31;33.10;98407.34;4939765;29;20522;-86
2021/07/16 05:43:26;;;;;;;3.75;1.20;;;;;;;35.99;31.67;98384.56;4957042;29;20039;-86
2021/07/16 05:45:51;;;;;;;0.60;0.60;;;;;;;37.01;30.09;98393.16;4940012;29;20023;-85
2021/07/16 05:48:17;;;;;;;1.15;0.90;;;;;;;37.27;28.78;98401.91;4956977;29;20035;-85
2021/07/16 05:50:44;;;;;;;0.63;0.63;;;;;;;37.47;29.09;98411.75;4956969;29;20023;-87
2021/07/16 05:53:09;;;;;;;7.05;2.00;;;;;;;38.21;27.26;98403.06;4939523;29;20035;-86
2021/07/16 05:55:36;;;;;;;0.35;0.35;;;;;;;38.86;26.34;98406.63;4939948;29;20036;-85
2021/07/16 05:58:02;;;;;;;4.50;0.95;;;;;;;39.58;25.46;98401.03;4939680;29;20413;-86
2021/07/16 06:00:28;;;;;;;0.70;0.70;;;;;;;40.14;24.67;98408.13;4939457;29;20059;-85
2021/07/16 06:02:54;;;;;;;0.97;0.77;;;;;;;40.38;24.39;98402.75;4956810;29;20031;-86
2021/07/16 06:05:20;;;;;;;0.87;0.60;;;;;;;40.63;23.46;98400.31;4956431;29;20031;-85
2021/07/16 06:07:45;;;;;;;0.82;0.77;;;;;;;40.76;22.30;98416.13;4956477;29;20086;-86
2021/07/16 06:10:11;;;;;;;6.97;0.50;;;;;;;41.37;21.53;98393.50;4956557;29;20030;-87
2021/07/16 06:12:37;;;;;;;0.75;0.70;;;;;;;40.67;22.71;98376.63;4956731;29;20024;-87
2021/07/16 06:15:05;;;;;;;0.85;0.68;;;;;;;41.03;23.18;98389.84;4939228;29;20046;-84
2021/07/16 06:17:32;;;;;;;3.70;1.13;;;;;;;41.66;21.11;98401.28;4956241;29;20411;-84
2021/07/16 06:19:58;;;;;;;0.30;0.30;;;;;;;41.77;20.70;98411.16;4938683;29;20039;-82
2021/07/16 06:22:23;;;;;;;3.22;0.68;;;;;;;39.48;22.10;98383.16;4956228;29;20031;-82
2021/07/16 06:24:49;;;;;;;0.70;0.30;;;;;;;37.88;23.87;98404.09;4938703;29;20102;-85
2021/07/16 06:27:15;;;;;;;0.30;0.30;;;;;;;37.74;24.81;98391.75;4938718;29;20031;-85
2021/07/16 06:29:40;;;;;;;12.80;3.38;;;;;;;38.17;24.23;98411.50;4938450;29;20027;-84
2021/07/16 06:32:06;;;;;;;9.93;2.65;;;;;;;38.04;24.29;98407.16;4938835;29;20122;-85
2021/07/16 06:34:31;;;;;;;0.40;0.40;;;;;;;39.20;23.21;98401.91;4939430;29;20065;-86
2021/07/16 06:36:57;;;;;;;2.80;1.00;;;;;;;38.72;22.77;98400.84;4955385;28;20063;-83
2021/07/16 06:39:22;;;;;;;1.50;0.73;;;;;;;38.31;23.53;98397.09;4955691;29;20101;-84
2021/07/16 06:41:48;;;;;;;0.32;0.17;;;;;;;39.09;22.63;98409.31;4938604;29;20027;-83
2021/07/16 06:44:14;;;;;;;0.15;0.15;;;;;;;39.58;21.89;98401.03;4938391;29;20089;-87
2021/07/16 06:46:40;;;;;;;0.35;0.32;;;;;;;40.59;21.26;98350.16;4938990;29;20023;-87
2021/07/16 06:49:06;;;;;;;0.60;0.47;;;;;;;41.91;19.77;98379.06;4938897;28;20031;-85
2021/07/16 06:51:33;;;;;;;0.63;0.63;;;;;;;42.11;20.00;98403.88;4939286;29;20472;-86
2021/07/16 06:53:59;;;;;;;1.30;0.57;;;;;;;43.24;19.39;98398.72;4939241;29;20027;-86
2021/07/16 06:56:24;;;;;;;0.30;0.30;;;;;;;43.08;18.84;98377.03;4938659;29;20122;-84
2021/07/16 06:58:52;;;;;;;0.30;0.30;;;;;;;42.27;20.94;98395.03;4938656;29;20031;-86
2021/07/16 07:01:18;;;;;;;18.02;0.70;;;;;;;41.28;20.07;98394.59;4938159;29;20027;-84
2021/07/16 07:03:43;;;;;;;0.70;0.65;;;;;;;41.90;19.73;98383.41;4955576;29;20031;-85
2021/07/16 07:06:09;;;;;;;2.70;0.70;;;;;;;42.88;19.21;98377.78;4955750;29;20034;-85
2021/07/16 07:08:34;;;;;;;0.30;0.30;;;;;;;43.80;18.59;98382.47;4938621;29;20523;-84
2021/07/16 07:11:00;;;;;;;0.50;0.30;;;;;;;44.13;18.00;98381.34;4938588;29;20126;-83
2021/07/16 07:13:25;;;;;;;1.77;1.63;;;;;;;44.39;18.60;98378.53;4955664;29;20106;-85
2021/07/16 07:15:50;;;;;;;0.70;0.70;;;;;;;43.45;18.22;98367.44;4938101;29;20046;-84
2021/07/16 07:18:16;;;;;;;0.53;0.53;;;;;;;41.36;20.24;98351.41;4937792;29;20105;-82
2021/07/16 07:20:41;;;;;;;1.73;0.97;;;;;;;40.65;21.36;98344.66;4954901;29;20542;-83
2021/07/16 07:23:07;;;;;;;0.63;0.35;;;;;;;41.56;21.06;98371.84;4937884;29;20023;-83
2021/07/16 07:25:32;;;;;;;1.00;0.88;;;;;;;41.24;21.50;98367.53;4937502;29;20030;-83
2021/07/16 07:27:58;;;;;;;0.77;0.73;;;;;;;40.33;22.63;98354.75;4937624;29;20033;-84
2021/07/16 07:30:24;;;;;;;0.38;0.38;;;;;;;40.46;22.70;98354.63;4937596;29;20027;-83
2021/07/16 07:32:50;;;;;;;0.68;0.52;;;;;;;41.61;21.37;98341.59;4937812;29;20415;-84
2021/07/16 07:35:16;;;;;;;3.60;0.87;;;;;;;41.28;21.71;98356.13;4937747;29;20031;-83
2021/07/16 07:37:42;;;;;;;6.97;1.02;;;;;;;41.13;21.32;98354.78;4954411;29;20302;-84
2021/07/16 07:40:11;;;;;;;0.30;0.30;;;;;;;38.94;23.21;98357.97;4937954;29;20082;-84
2021/07/16 07:42:36;;;;;;;0.45;0.45;;;;;;;39.30;23.57;98348.28;4937730;29;20062;-85
2021/07/16 07:45:03;;;;;;;7.70;1.38;;;;;;;40.51;22.33;98347.63;4954680;29;20051;-85
2021/07/16 07:47:32;;;;;;;;;;;;;;;41.24;21.33;98345.09;4937842;29;20039;-85
2021/07/16 07:49:59;;;;;;;0.80;0.80;;;;;;;41.79;20.83;98330.72;4954793;29;19921;-84
2021/07/16 07:52:25;;;;;;;4.80;0.98;;;;;;;40.47;22.38;98323.53;4954857;29;20046;-83
2021/07/16 07:54:50;;;;;;;0.50;0.50;;;;;;;40.82;21.78;98320.03;4938016;29;20062;-84
2021/07/16 07:57:16;;;;;;;0.50;0.50;;;;;;;41.84;21.64;98341.06;4937676;29;20066;-84
2021/07/16 07:59:43;;;;;;;1.55;1.42;;;;;;;39.97;22.45;98345.06;4938119;29;20027;-85
2021/07/16 08:02:08;;;;;;;;;;;;;;;38.22;24.76;98352.63;4937305;29;20023;-85
2021/07/16 08:04:35;;;;;;;1.20;1.10;;;;;;;36.38;27.94;98347.47;4954628;29;20005;-86
2021/07/16 08:07:01;;;;;;;;;;;;;;;35.61;30.05;98345.41;4938017;29;20078;-86
2021/07/16 08:09:26;;;;;;;1.95;1.00;;;;;;;35.68;29.01;98325.09;4937911;29;19914;-87
2021/07/16 08:11:52;;;;;;;0.50;0.50;;;;;;;34.42;30.60;98338.75;4937708;29;20034;-85
2021/07/16 08:14:17;;;;;;;0.38;0.38;;;;;;;33.45;31.35;98292.38;4937510;29;20054;-86
2021/07/16 08:16:46;;;;;;;4.88;0.90;;;;;;;33.27;33.32;98333.25;4937395;29;20027;-86
2021/07/16 08:19:17;;;;;;;0.82;0.80;;;;;;;33.05;35.35;98324.47;4937357;29;20034;-86
2021/07/16 08:21:43;;;;;;;0.70;0.70;;;;;;;32.86;35.88;98318.72;4937646;29;20031;-85
2021/07/16 08:24:08;;;;;;;6.40;0.80;;;;;;;32.26;34.92;98326.19;4937503;29;20494;-86
2021/07/16 08:26:34;;;;;;;2.00;1.25;;;;;;;32.20;37.05;98335.06;4954307;29;20023;-86
2021/07/16 08:28:59;;;;;;;0.88;0.70;;;;;;;32.28;36.09;98312.81;4937605;29;20126;-85
2021/07/16 08:31:25;;;;;;;0.70;0.70;;;;;;;31.76;38.44;98302.91;4937514;29;20071;-86
2021/07/16 08:33:50;;;;;;;0.77;0.77;;;;;;;32.02;37.76;98318.53;4937702;29;20502;-86
2021/07/16 08:36:15;;;;;;;18.30;1.67;;;;;;;31.11;38.36;98298.38;4937338;29;20090;-85
2021/07/16 08:38:43;;;;;;;1.52;1.30;;;;;;;31.56;39.82;98309.81;4937552;29;20055;-87
2021/07/16 08:41:10;;;;;;;2.40;1.30;;;;;;;31.21;40.29;98311.97;4937324;29;20030;-85
2021/07/16 08:43:39;;;;;;;1.50;1.40;;;;;;;30.63;39.80;98289.34;4954530;29;20039;-87
2021/07/16 08:46:05;;;;;;;20.08;1.88;;;;;;;30.40;39.90;98303.03;4937261;29;20037;-85
2021/07/16 08:48:31;;;;;;;1.52;0.88;;;;;;;30.16;41.19;98303.78;4937079;29;20027;-84
2021/07/16 08:50:58;;;;;;;0.95;0.95;;;;;;;30.46;42.86;98303.53;4954275;29;20023;-84
2021/07/16 08:53:24;;;;;;;2.15;1.95;;;;;;;30.54;40.24;98304.25;4937234;29;20039;-85
2021/07/16 08:55:50;;;;;;;5.93;1.38;;;;;;;30.45;41.00;98275.59;4936895;29;20023;-85
2021/07/16 08:58:15;;;;;;;2.08;0.77;;;;;;;30.42;40.92;98291.78;4937081;29;20046;-85
2021/07/16 09:00:41;;;;;;;0.65;0.65;;;;;;;30.56;40.14;98272.31;4937091;29;20032;-86
2021/07/16 09:03:10;;;;;;;0.68;0.68;;;;;;;30.71;40.95;98289.28;4954556;29;20082;-86
2021/07/16 09:05:42;;;;;;;1.20;0.95;;;;;;;30.88;39.98;98309.25;4936864;29;20024;-86
2021/07/16 09:08:27;;;;;;;2.05;0.93;;;;;;;30.40;41.82;98262.34;4954040;29;20108;-87
2021/07/16 09:10:57;;;;;;;1.77;1.13;;;;;;;30.71;41.69;98270.06;4937479;29;20046;-86
2021/07/16 09:13:25;;;;;;;1.30;0.98;;;;;;;30.72;41.52;98267.97;4938799;29;20039;-85
2021/07/16 09:15:53;;;;;;;2.00;1.15;;;;;;;30.52;42.26;98284.13;4957478;29;20074;-85
2021/07/16 09:18:21;;;;;;;7.22;2.88;;;;;;;30.13;41.28;98268.66;4940176;29;20127;-84
2021/07/16 09:21:03;;;;;;;0.70;0.70;;;;;;;30.27;42.69;98269.88;4940257;29;20062;-87
2021/07/16 09:23:43;;;;;;;1.73;0.98;;;;;;;30.29;42.62;98266.44;4940025;29;20031;-84
2021/07/16 09:26:26;;;;;;;1.48;1.23;;;;;;;30.24;43.20;98227.53;4940090;29;20023;-85
2021/07/16 09:28:55;;;;;;;1.33;0.77;;;;;;;30.43;41.51;98259.09;4940102;29;20031;-84
2021/07/16 09:31:23;;;;;;;0.70;0.70;;;;;;;30.13;44.08;98208.81;4939876;29;20510;-86
2021/07/16 09:33:57;;;;;;;2.58;1.35;;;;;;;30.29;42.87;98243.63;4939940;29;20491;-83
2021/07/16 09:36:30;;;;;;;0.65;0.65;;;;;;;30.31;42.07;98263.78;4939754;29;20058;-86
2021/07/16 09:39:03;;;;;;;2.58;1.05;;;;;;;30.62;41.81;98259.31;4939999;29;20450;-85
2021/07/16 09:41:29;;;;;;;0.73;0.73;;;;;;;30.74;41.69;98259.59;4956951;29;20031;-87
2021/07/16 09:44:00;;;;;;;0.98;0.93;;;;;;;30.52;41.77;98200.66;4939602;29;20043;-85
2021/07/16 09:46:26;;;;;;;7.85;1.85;;;;;;;30.58;41.49;98241.09;4939701;29;20042;-86
2021/07/16 09:48:51;;;;;;;1.25;1.15;;;;;;;31.09;42.14;98255.41;4939987;29;20031;-87
2021/07/16 09:51:25;;;;;;;0.90;0.90;;;;;;;31.12;41.25;98253.47;4939813;29;20032;-85
2021/07/16 09:54:00;;;;;;;1.30;0.82;;;;;;;31.15;40.55;98234.41;4940225;29;20487;-84
2021/07/16 09:56:28;;;;;;;1.40;1.30;;;;;;;30.73;42.95;98206.72;4940137;29;20031;-85
2021/07/16 09:59:14;;;;;;;1.48;0.80;;;;;;;31.07;41.13;98243.06;4939659;29;20027;-85
2021/07/16 10:01:42;;;;;;;1.10;1.10;;;;;;;30.41;41.33;98166.94;4939817;29;20503;-86
2021/07/16 10:04:16;;;;;;;1.10;1.00;;;;;;;30.78;42.02;98248.50;4939266;29;20020;-85
2021/07/16 10:06:42;;;;;;;2.33;0.85;;;;;;;30.48;40.98;98206.81;4939078;29;20035;-84
2021/07/16 10:09:07;;;;;;;1.33;1.23;;;;;;;30.56;43.04;98207.47;4939373;29;20031;-86
2021/07/16 10:11:35;;;;;;;1.75;1.65;;;;;;;31.07;42.07;98206.72;4956538;29;20046;-86
2021/07/16 10:14:02;;;;;;;2.35;1.27;;;;;;;31.16;40.13;98222.41;4956470;29;20114;-84
2021/07/16 10:16:29;;;;;;;2.30;1.15;;;;;;;30.80;42.16;98199.44;4939265;29;20027;-87
2021/07/16 10:18:55;;;;;;;1.27;1.08;;;;;;;31.00;41.57;98229.59;4939141;29;20058;-86
2021/07/16 10:21:22;;;;;;;23.90;1.25;;;;;;;30.92;40.53;98217.53;4939243;29;20493;-88
2021/07/16 10:23:50;;;;;;;6.33;2.10;;;;;;;30.88;41.18;98220.03;4956087;28;20431;-86
2021/07/16 10:26:16;;;;;;;5.15;1.95;;;;;;;30.93;41.48;98214.09;4938733;29;20031;-84
2021/07/16 10:28:44;;;;;;;2.80;1.30;;;;;;;30.86;42.09;98179.97;4939183;29;20031;-86
2021/07/16 10:31:28;;;;;;;1.48;1.23;;;;;;;31.22;40.34;98216.44;4939172;29;20055;-85
2021/07/16 10:33:54;;;;;;;3.50;1.08;;;;;;;30.85;40.02;98147.81;4956237;29;20038;-85
2021/07/16 10:36:42;;;;;;;0.82;0.82;;;;;;;31.21;40.83;98212.06;4955823;28;20039;-89
2021/07/16 10:39:09;;;;;;;1.08;0.80;;;;;;;30.67;39.60;98175.63;4938989;29;20082;-85
2021/07/16 10:41:37;;;;;;;;;;;;;;;31.08;40.06;98193.19;4939242;29;20551;-85
2021/07/16 10:44:06;;;;;;;1.95;1.40;;;;;;;31.17;41.70;98197.44;4955776;29;19910;-84
2021/07/16 10:46:37;;;;;;;2.05;1.15;;;;;;;31.02;41.15;98182.03;4939246;29;20031;-85
2021/07/16 10:49:07;;;;;;;0.77;0.77;;;;;;;30.84;39.90;98179.78;4938616;29;20066;-86
2021/07/16 10:51:34;;;;;;;1.55;1.45;;;;;;;30.90;39.80;98192.44;4938504;29;20079;-84
2021/07/16 10:54:02;;;;;;;1.52;0.77;;;;;;;30.93;40.04;98156.25;4955795;29;20043;-86
2021/07/16 10:56:39;;;;;;;1.05;1.00;;;;;;;31.17;40.75;98177.47;4938379;29;20032;-86
2021/07/16 10:59:05;;;;;;;6.78;1.52;;;;;;;31.31;40.16;98176.50;4938945;29;20093;-86
2021/07/16 11:01:34;;;;;;;2.40;0.77;;;;;;;30.97;39.06;98145.94;4938476;29;20118;-86
2021/07/16 11:04:05;;;;;;;0.55;0.30;;;;;;;30.93;39.21;98184.78;4955374;29;20063;-83
2021/07/16 11:06:54;;;;;;;0.47;0.47;;;;;;;31.10;38.38;98165.59;4938188;29;20035;-83
2021/07/16 11:09:41;;;;;;;1.17;1.02;;;;;;;31.14;39.99;98156.59;4938618;29;20403;-87
2021/07/16 11:12:19;;;;;;;0.85;0.85;;;;;;;30.92;40.54;98134.81;4938210;29;20418;-86
2021/07/16 11:14:45;;;;;;;0.40;0.40;;;;;;;31.17;38.29;98166.81;4938395;29;20403;-85
2021/07/16 11:17:10;;;;;;;0.75;0.65;;;;;;;31.04;38.63;98167.19;4938103;29;20027;-84
2021/07/16 11:19:36;;;;;;;0.40;0.40;;;;;;;30.79;37.22;98140.88;4955270;29;20038;-84
2021/07/16 11:22:04;;;;;;;0.52;0.52;;;;;;;31.01;37.46;98148.38;4938132;29;20070;-86
2021/07/16 11:24:32;;;;;;;1.45;0.63;;;;;;;31.10;37.92;98142.75;4938112;29;20042;-86
2021/07/16 11:27:15;;;;;;;3.10;0.63;;;;;;;31.07;37.84;98123.19;4937802;29;20468;-84
2021/07/16 11:29:45;;;;;;;2.22;1.33;;;;;;;31.13;37.32;98160.78;4937787;29;20086;-84
2021/07/16 11:32:19;;;;;;;2.53;1.00;;;;;;;31.20;38.26;98142.81;4937738;29;20030;-84
2021/07/16 11:34:51;;;;;;;1.35;1.23;;;;;;;31.27;36.95;98147.66;4937861;29;20031;-85